sensor_id;sensor_type;location;lat;lon;timestamp;P1;durP1;ratioP1;P2;durP2;ratioP2
81176;SDS011;70786;48.272;14.200;2023-10-19T00:00:35;25.15;;;18.20;;
81176;SDS011;70786;48.272;14.200;2023-10-19T00:03:04;25.17;;;17.25;;
81176;SDS011;70786;48.272;14.200;2023-10-19T00:05:32;22.95;;;16.50;;
81176;SDS011;70786;48.272;14.200;2023-10-19T00:07:59;22.33;;;15.82;;
81176;SDS011;70786;48.272;14.200;2023-10-19T00:10:26;23.10;;;15.95;;
81176;SDS011;70786;48.272;14.200;2023-10-19T00:12:58;25.77;;;18.92;;
81176;SDS011;70786;48.272;14.200;2023-10-19T00:18:00;18.40;;;13.30;;
81176;SDS011;70786;48.272;14.200;2023-10-19T00:20:41;20.52;;;14.32;;
81176;SDS011;70786;48.272;14.200;2023-10-19T00:23:11;22.75;;;15.02;;
81176;SDS011;70786;48.272;14.200;2023-10-19T00:25:44;24.42;;;17.10;;
81176;SDS011;70786;48.272;14.200;2023-10-19T00:30:43;28.13;;;18.20;;
81176;SDS011;70786;48.272;14.200;2023-10-19T00:33:11;28.15;;;19.15;;
81176;SDS011;70786;48.272;14.200;2023-10-19T00:35:47;23.40;;;15.82;;
81176;SDS011;70786;48.272;14.200;2023-10-19T00:38:24;30.50;;;20.02;;
81176;SDS011;70786;48.272;14.200;2023-10-19T00:40:53;25.35;;;17.55;;
81176;SDS011;70786;48.272;14.200;2023-10-19T00:43:31;25.08;;;16.88;;
81176;SDS011;70786;48.272;14.200;2023-10-19T00:46:03;28.75;;;19.63;;
81176;SDS011;70786;48.272;14.200;2023-10-19T00:48:33;29.80;;;20.55;;
81176;SDS011;70786;48.272;14.200;2023-10-19T00:51:00;25.50;;;18.73;;
81176;SDS011;70786;48.272;14.200;2023-10-19T00:53:34;25.90;;;16.55;;
81176;SDS011;70786;48.272;14.200;2023-10-19T00:56:01;25.73;;;17.70;;
81176;SDS011;70786;48.272;14.200;2023-10-19T00:58:31;25.15;;;16.23;;
81176;SDS011;70786;48.272;14.200;2023-10-19T01:01:04;24.58;;;16.25;;
81176;SDS011;70786;48.272;14.200;2023-10-19T01:03:34;18.92;;;12.73;;
81176;SDS011;70786;48.272;14.200;2023-10-19T01:06:04;25.70;;;18.13;;
81176;SDS011;70786;48.272;14.200;2023-10-19T01:08:36;20.98;;;13.93;;
81176;SDS011;70786;48.272;14.200;2023-10-19T01:11:11;25.88;;;16.42;;
81176;SDS011;70786;48.272;14.200;2023-10-19T01:13:41;21.15;;;13.88;;
81176;SDS011;70786;48.272;14.200;2023-10-19T01:16:14;21.42;;;14.13;;
81176;SDS011;70786;48.272;14.200;2023-10-19T01:18:47;21.08;;;14.38;;
81176;SDS011;70786;48.272;14.200;2023-10-19T01:21:13;21.33;;;14.82;;
81176;SDS011;70786;48.272;14.200;2023-10-19T01:23:45;21.35;;;15.10;;
81176;SDS011;70786;48.272;14.200;2023-10-19T01:26:11;26.05;;;16.95;;
81176;SDS011;70786;48.272;14.200;2023-10-19T01:28:43;22.60;;;15.48;;
81176;SDS011;70786;48.272;14.200;2023-10-19T01:31:19;24.70;;;16.83;;
81176;SDS011;70786;48.272;14.200;2023-10-19T01:33:58;24.30;;;17.02;;
81176;SDS011;70786;48.272;14.200;2023-10-19T01:36:26;23.35;;;15.57;;
81176;SDS011;70786;48.272;14.200;2023-10-19T01:38:56;24.50;;;15.10;;
81176;SDS011;70786;48.272;14.200;2023-10-19T01:41:26;25.75;;;18.27;;
81176;SDS011;70786;48.272;14.200;2023-10-19T01:43:53;20.02;;;14.15;;
81176;SDS011;70786;48.272;14.200;2023-10-19T01:46:20;22.48;;;15.43;;
81176;SDS011;70786;48.272;14.200;2023-10-19T01:48:48;25.25;;;17.17;;
81176;SDS011;70786;48.272;14.200;2023-10-19T01:51:24;20.20;;;13.68;;
81176;SDS011;70786;48.272;14.200;2023-10-19T01:53:52;23.58;;;15.88;;
81176;SDS011;70786;48.272;14.200;2023-10-19T01:56:20;21.70;;;16.08;;
81176;SDS011;70786;48.272;14.200;2023-10-19T01:58:47;25.63;;;18.23;;
81176;SDS011;70786;48.272;14.200;2023-10-19T02:01:15;24.63;;;17.23;;
81176;SDS011;70786;48.272;14.200;2023-10-19T02:04:01;25.42;;;18.38;;
81176;SDS011;70786;48.272;14.200;2023-10-19T02:09:10;23.92;;;17.23;;
81176;SDS011;70786;48.272;14.200;2023-10-19T02:11:54;24.25;;;15.45;;
81176;SDS011;70786;48.272;14.200;2023-10-19T02:14:23;25.30;;;16.73;;
81176;SDS011;70786;48.272;14.200;2023-10-19T02:16:53;23.50;;;15.30;;
81176;SDS011;70786;48.272;14.200;2023-10-19T02:19:29;23.52;;;15.95;;
81176;SDS011;70786;48.272;14.200;2023-10-19T02:21:59;21.90;;;14.35;;
81176;SDS011;70786;48.272;14.200;2023-10-19T02:27:08;23.58;;;16.73;;
81176;SDS011;70786;48.272;14.200;2023-10-19T02:29:35;18.17;;;13.10;;
81176;SDS011;70786;48.272;14.200;2023-10-19T02:32:04;25.65;;;18.25;;
81176;SDS011;70786;48.272;14.200;2023-10-19T02:37:00;25.40;;;16.35;;
81176;SDS011;70786;48.272;14.200;2023-10-19T02:39:29;29.05;;;20.35;;
81176;SDS011;70786;48.272;14.200;2023-10-19T02:41:56;25.98;;;17.20;;
81176;SDS011;70786;48.272;14.200;2023-10-19T02:44:22;24.83;;;17.67;;
81176;SDS011;70786;48.272;14.200;2023-10-19T02:46:57;28.90;;;20.73;;
81176;SDS011;70786;48.272;14.200;2023-10-19T02:49:51;25.63;;;17.17;;
81176;SDS011;70786;48.272;14.200;2023-10-19T02:52:23;25.65;;;17.83;;
81176;SDS011;70786;48.272;14.200;2023-10-19T02:54:56;25.30;;;18.45;;
81176;SDS011;70786;48.272;14.200;2023-10-19T02:57:25;24.83;;;16.00;;
81176;SDS011;70786;48.272;14.200;2023-10-19T02:59:55;29.13;;;19.73;;
81176;SDS011;70786;48.272;14.200;2023-10-19T03:02:21;20.92;;;14.35;;
81176;SDS011;70786;48.272;14.200;2023-10-19T03:04:59;25.65;;;18.33;;
81176;SDS011;70786;48.272;14.200;2023-10-19T03:07:32;27.83;;;18.20;;
81176;SDS011;70786;48.272;14.200;2023-10-19T03:10:14;25.83;;;17.05;;
81176;SDS011;70786;48.272;14.200;2023-10-19T03:13:00;22.65;;;12.68;;
81176;SDS011;70786;48.272;14.200;2023-10-19T03:15:30;26.48;;;15.68;;
81176;SDS011;70786;48.272;14.200;2023-10-19T03:17:59;26.58;;;18.77;;
81176;SDS011;70786;48.272;14.200;2023-10-19T03:20:29;31.08;;;21.38;;
81176;SDS011;70786;48.272;14.200;2023-10-19T03:22:59;27.27;;;18.70;;
81176;SDS011;70786;48.272;14.200;2023-10-19T03:25:30;27.90;;;19.17;;
81176;SDS011;70786;48.272;14.200;2023-10-19T03:28:17;19.02;;;12.63;;
81176;SDS011;70786;48.272;14.200;2023-10-19T03:30:44;25.48;;;15.93;;
81176;SDS011;70786;48.272;14.200;2023-10-19T03:33:12;29.45;;;20.50;;
81176;SDS011;70786;48.272;14.200;2023-10-19T03:35:39;27.35;;;16.45;;
81176;SDS011;70786;48.272;14.200;2023-10-19T03:38:11;24.00;;;16.02;;
81176;SDS011;70786;48.272;14.200;2023-10-19T03:40:42;23.17;;;16.10;;
81176;SDS011;70786;48.272;14.200;2023-10-19T03:43:17;25.05;;;16.42;;
81176;SDS011;70786;48.272;14.200;2023-10-19T03:45:47;23.27;;;15.75;;
81176;SDS011;70786;48.272;14.200;2023-10-19T03:48:21;26.92;;;17.60;;
81176;SDS011;70786;48.272;14.200;2023-10-19T03:51:00;28.33;;;17.85;;
81176;SDS011;70786;48.272;14.200;2023-10-19T03:53:28;27.63;;;19.00;;
81176;SDS011;70786;48.272;14.200;2023-10-19T03:55:56;26.30;;;18.08;;
81176;SDS011;70786;48.272;14.200;2023-10-19T03:58:23;27.42;;;19.13;;
81176;SDS011;70786;48.272;14.200;2023-10-19T04:00:49;27.98;;;18.45;;
81176;SDS011;70786;48.272;14.200;2023-10-19T04:03:16;26.27;;;18.02;;
81176;SDS011;70786;48.272;14.200;2023-10-19T04:05:50;36.30;;;23.70;;
81176;SDS011;70786;48.272;14.200;2023-10-19T04:08:17;35.35;;;24.00;;
81176;SDS011;70786;48.272;14.200;2023-10-19T04:10:46;33.75;;;22.17;;
81176;SDS011;70786;48.272;14.200;2023-10-19T04:13:36;27.20;;;16.58;;
81176;SDS011;70786;48.272;14.200;2023-10-19T04:16:02;32.45;;;20.65;;
81176;SDS011;70786;48.272;14.200;2023-10-19T04:18:33;27.63;;;19.92;;
81176;SDS011;70786;48.272;14.200;2023-10-19T04:21:04;24.10;;;15.15;;
81176;SDS011;70786;48.272;14.200;2023-10-19T04:23:30;32.65;;;20.75;;
81176;SDS011;70786;48.272;14.200;2023-10-19T04:26:00;30.05;;;19.83;;
81176;SDS011;70786;48.272;14.200;2023-10-19T04:28:43;32.08;;;19.98;;
81176;SDS011;70786;48.272;14.200;2023-10-19T04:31:18;30.77;;;18.70;;
81176;SDS011;70786;48.272;14.200;2023-10-19T04:33:47;29.25;;;19.05;;
81176;SDS011;70786;48.272;14.200;2023-10-19T04:36:16;32.53;;;21.10;;
81176;SDS011;70786;48.272;14.200;2023-10-19T04:38:53;29.50;;;18.80;;
81176;SDS011;70786;48.272;14.200;2023-10-19T04:41:21;30.77;;;20.15;;
81176;SDS011;70786;48.272;14.200;2023-10-19T04:43:48;29.02;;;20.17;;
81176;SDS011;70786;48.272;14.200;2023-10-19T04:46:15;34.97;;;24.30;;
81176;SDS011;70786;48.272;14.200;2023-10-19T04:48:44;30.30;;;19.98;;
81176;SDS011;70786;48.272;14.200;2023-10-19T04:51:11;32.35;;;21.33;;
81176;SDS011;70786;48.272;14.200;2023-10-19T04:53:37;40.38;;;25.60;;
81176;SDS011;70786;48.272;14.200;2023-10-19T04:56:07;40.22;;;26.33;;
81176;SDS011;70786;48.272;14.200;2023-10-19T04:58:38;35.35;;;23.05;;
81176;SDS011;70786;48.272;14.200;2023-10-19T05:01:09;30.25;;;19.88;;
81176;SDS011;70786;48.272;14.200;2023-10-19T05:03:39;36.45;;;22.23;;
81176;SDS011;70786;48.272;14.200;2023-10-19T05:06:06;40.75;;;26.95;;
81176;SDS011;70786;48.272;14.200;2023-10-19T05:08:32;37.72;;;26.17;;
81176;SDS011;70786;48.272;14.200;2023-10-19T05:10:59;27.33;;;18.95;;
81176;SDS011;70786;48.272;14.200;2023-10-19T05:13:26;32.53;;;19.55;;
81176;SDS011;70786;48.272;14.200;2023-10-19T05:15:55;30.70;;;20.70;;
81176;SDS011;70786;48.272;14.200;2023-10-19T05:18:25;26.90;;;17.67;;
81176;SDS011;70786;48.272;14.200;2023-10-19T05:20:52;32.67;;;21.55;;
81176;SDS011;70786;48.272;14.200;2023-10-19T05:23:25;33.67;;;22.75;;
81176;SDS011;70786;48.272;14.200;2023-10-19T05:26:02;33.25;;;20.77;;
81176;SDS011;70786;48.272;14.200;2023-10-19T05:28:32;31.83;;;21.70;;
81176;SDS011;70786;48.272;14.200;2023-10-19T05:30:58;27.42;;;19.75;;
81176;SDS011;70786;48.272;14.200;2023-10-19T05:33:27;27.45;;;16.92;;
81176;SDS011;70786;48.272;14.200;2023-10-19T05:35:56;27.80;;;17.88;;
81176;SDS011;70786;48.272;14.200;2023-10-19T05:38:22;27.35;;;18.42;;
81176;SDS011;70786;48.272;14.200;2023-10-19T05:40:49;28.13;;;19.55;;
81176;SDS011;70786;48.272;14.200;2023-10-19T05:43:17;27.50;;;18.92;;
81176;SDS011;70786;48.272;14.200;2023-10-19T05:45:44;27.83;;;18.55;;
81176;SDS011;70786;48.272;14.200;2023-10-19T05:48:17;26.45;;;17.65;;
81176;SDS011;70786;48.272;14.200;2023-10-19T05:50:43;27.15;;;17.90;;
81176;SDS011;70786;48.272;14.200;2023-10-19T05:53:10;26.65;;;17.95;;
81176;SDS011;70786;48.272;14.200;2023-10-19T05:55:38;26.10;;;16.10;;
81176;SDS011;70786;48.272;14.200;2023-10-19T05:58:12;26.17;;;18.10;;
81176;SDS011;70786;48.272;14.200;2023-10-19T06:00:44;26.75;;;15.52;;
81176;SDS011;70786;48.272;14.200;2023-10-19T06:03:10;31.90;;;21.42;;
81176;SDS011;70786;48.272;14.200;2023-10-19T06:05:39;30.65;;;19.98;;
81176;SDS011;70786;48.272;14.200;2023-10-19T06:08:06;24.48;;;15.63;;
81176;SDS011;70786;48.272;14.200;2023-10-19T06:10:37;31.73;;;19.08;;
81176;SDS011;70786;48.272;14.200;2023-10-19T06:13:06;28.23;;;19.10;;
81176;SDS011;70786;48.272;14.200;2023-10-19T06:15:35;24.27;;;15.57;;
81176;SDS011;70786;48.272;14.200;2023-10-19T06:18:02;28.67;;;20.38;;
81176;SDS011;70786;48.272;14.200;2023-10-19T06:20:29;22.50;;;14.27;;
81176;SDS011;70786;48.272;14.200;2023-10-19T06:22:56;20.45;;;14.18;;
81176;SDS011;70786;48.272;14.200;2023-10-19T06:25:30;23.73;;;15.15;;
81176;SDS011;70786;48.272;14.200;2023-10-19T06:28:17;31.70;;;18.92;;
81176;SDS011;70786;48.272;14.200;2023-10-19T06:30:43;27.45;;;17.48;;
81176;SDS011;70786;48.272;14.200;2023-10-19T06:33:10;31.42;;;20.45;;
81176;SDS011;70786;48.272;14.200;2023-10-19T06:35:37;31.23;;;21.35;;
81176;SDS011;70786;48.272;14.200;2023-10-19T06:38:03;29.40;;;20.25;;
81176;SDS011;70786;48.272;14.200;2023-10-19T06:40:30;27.33;;;18.25;;
81176;SDS011;70786;48.272;14.200;2023-10-19T06:42:57;25.13;;;17.52;;
81176;SDS011;70786;48.272;14.200;2023-10-19T06:45:24;25.88;;;17.45;;
81176;SDS011;70786;48.272;14.200;2023-10-19T06:47:55;22.65;;;14.27;;
81176;SDS011;70786;48.272;14.200;2023-10-19T06:50:24;29.65;;;18.85;;
81176;SDS011;70786;48.272;14.200;2023-10-19T06:52:51;30.30;;;22.02;;
81176;SDS011;70786;48.272;14.200;2023-10-19T06:55:20;29.58;;;18.45;;
81176;SDS011;70786;48.272;14.200;2023-10-19T06:57:49;29.75;;;20.42;;
81176;SDS011;70786;48.272;14.200;2023-10-19T07:00:23;16.30;;;11.10;;
81176;SDS011;70786;48.272;14.200;2023-10-19T07:02:54;27.63;;;20.38;;
81176;SDS011;70786;48.272;14.200;2023-10-19T07:05:21;25.25;;;17.58;;
81176;SDS011;70786;48.272;14.200;2023-10-19T07:07:55;29.65;;;21.58;;
81176;SDS011;70786;48.272;14.200;2023-10-19T07:10:25;26.63;;;15.07;;
81176;SDS011;70786;48.272;14.200;2023-10-19T07:13:00;28.35;;;20.80;;
81176;SDS011;70786;48.272;14.200;2023-10-19T07:15:27;29.75;;;21.50;;
81176;SDS011;70786;48.272;14.200;2023-10-19T07:17:55;31.08;;;22.85;;
81176;SDS011;70786;48.272;14.200;2023-10-19T07:20:22;27.50;;;19.02;;
81176;SDS011;70786;48.272;14.200;2023-10-19T07:22:56;32.50;;;24.75;;
81176;SDS011;70786;48.272;14.200;2023-10-19T07:25:31;29.48;;;18.30;;
81176;SDS011;70786;48.272;14.200;2023-10-19T07:28:06;29.73;;;21.67;;
81176;SDS011;70786;48.272;14.200;2023-10-19T07:30:40;29.35;;;20.60;;
81176;SDS011;70786;48.272;14.200;2023-10-19T07:33:08;31.33;;;23.23;;
81176;SDS011;70786;48.272;14.200;2023-10-19T07:35:53;32.28;;;21.88;;
81176;SDS011;70786;48.272;14.200;2023-10-19T07:38:25;26.40;;;17.52;;
81176;SDS011;70786;48.272;14.200;2023-10-19T07:40:56;26.30;;;17.38;;
81176;SDS011;70786;48.272;14.200;2023-10-19T07:43:26;28.55;;;21.10;;
81176;SDS011;70786;48.272;14.200;2023-10-19T07:45:55;29.42;;;21.33;;
81176;SDS011;70786;48.272;14.200;2023-10-19T07:48:25;31.08;;;21.95;;
81176;SDS011;70786;48.272;14.200;2023-10-19T07:50:52;30.10;;;18.95;;
81176;SDS011;70786;48.272;14.200;2023-10-19T07:53:19;29.65;;;21.88;;
81176;SDS011;70786;48.272;14.200;2023-10-19T07:55:47;27.38;;;18.95;;
81176;SDS011;70786;48.272;14.200;2023-10-19T07:58:13;32.03;;;24.20;;
81176;SDS011;70786;48.272;14.200;2023-10-19T08:00:40;27.58;;;17.35;;
81176;SDS011;70786;48.272;14.200;2023-10-19T08:03:10;27.63;;;19.35;;
81176;SDS011;70786;48.272;14.200;2023-10-19T08:05:41;24.83;;;17.95;;
81176;SDS011;70786;48.272;14.200;2023-10-19T08:08:10;22.55;;;13.93;;
81176;SDS011;70786;48.272;14.200;2023-10-19T08:10:38;29.75;;;20.20;;
81176;SDS011;70786;48.272;14.200;2023-10-19T08:13:05;27.23;;;18.55;;
81176;SDS011;70786;48.272;14.200;2023-10-19T08:15:36;29.25;;;21.60;;
81176;SDS011;70786;48.272;14.200;2023-10-19T08:18:03;28.98;;;21.05;;
81176;SDS011;70786;48.272;14.200;2023-10-19T08:20:31;25.58;;;17.95;;
81176;SDS011;70786;48.272;14.200;2023-10-19T08:22:58;24.45;;;17.25;;
81176;SDS011;70786;48.272;14.200;2023-10-19T08:25:27;27.77;;;21.33;;
81176;SDS011;70786;48.272;14.200;2023-10-19T08:27:53;29.90;;;22.02;;
81176;SDS011;70786;48.272;14.200;2023-10-19T08:30:22;23.67;;;17.65;;
81176;SDS011;70786;48.272;14.200;2023-10-19T08:32:48;28.23;;;20.05;;
81176;SDS011;70786;48.272;14.200;2023-10-19T08:35:15;23.70;;;15.18;;
81176;SDS011;70786;48.272;14.200;2023-10-19T08:37:43;22.58;;;15.30;;
81176;SDS011;70786;48.272;14.200;2023-10-19T08:40:11;24.95;;;17.98;;
81176;SDS011;70786;48.272;14.200;2023-10-19T08:42:40;25.13;;;15.98;;
81176;SDS011;70786;48.272;14.200;2023-10-19T08:45:07;26.42;;;18.25;;
81176;SDS011;70786;48.272;14.200;2023-10-19T08:47:37;22.92;;;17.25;;
81176;SDS011;70786;48.272;14.200;2023-10-19T08:50:07;27.40;;;16.95;;
81176;SDS011;70786;48.272;14.200;2023-10-19T08:52:33;25.92;;;19.48;;
81176;SDS011;70786;48.272;14.200;2023-10-19T08:55:00;27.17;;;20.02;;
81176;SDS011;70786;48.272;14.200;2023-10-19T08:57:26;24.27;;;18.60;;
81176;SDS011;70786;48.272;14.200;2023-10-19T08:59:51;23.27;;;16.10;;
81176;SDS011;70786;48.272;14.200;2023-10-19T09:02:18;21.10;;;15.27;;
81176;SDS011;70786;48.272;14.200;2023-10-19T09:04:43;21.42;;;15.82;;
81176;SDS011;70786;48.272;14.200;2023-10-19T09:07:13;24.52;;;16.95;;
81176;SDS011;70786;48.272;14.200;2023-10-19T09:09:39;20.13;;;14.63;;
81176;SDS011;70786;48.272;14.200;2023-10-19T09:12:06;23.73;;;17.52;;
81176;SDS011;70786;48.272;14.200;2023-10-19T09:14:34;25.73;;;16.52;;
81176;SDS011;70786;48.272;14.200;2023-10-19T09:17:08;24.08;;;17.20;;
81176;SDS011;70786;48.272;14.200;2023-10-19T09:22:06;21.70;;;14.35;;
81176;SDS011;70786;48.272;14.200;2023-10-19T09:24:48;22.33;;;16.20;;
81176;SDS011;70786;48.272;14.200;2023-10-19T09:27:19;21.27;;;15.43;;
81176;SDS011;70786;48.272;14.200;2023-10-19T09:29:45;16.80;;;12.85;;
81176;SDS011;70786;48.272;14.200;2023-10-19T09:32:13;22.52;;;15.05;;
81176;SDS011;70786;48.272;14.200;2023-10-19T09:34:39;20.27;;;15.18;;
81176;SDS011;70786;48.272;14.200;2023-10-19T09:37:06;23.48;;;16.20;;
81176;SDS011;70786;48.272;14.200;2023-10-19T09:39:34;23.92;;;17.55;;
81176;SDS011;70786;48.272;14.200;2023-10-19T09:42:00;24.52;;;18.17;;
81176;SDS011;70786;48.272;14.200;2023-10-19T09:44:42;26.15;;;17.27;;
81176;SDS011;70786;48.272;14.200;2023-10-19T09:47:21;20.50;;;14.18;;
81176;SDS011;70786;48.272;14.200;2023-10-19T09:49:52;24.25;;;18.08;;
81176;SDS011;70786;48.272;14.200;2023-10-19T09:52:18;21.90;;;14.85;;
81176;SDS011;70786;48.272;14.200;2023-10-19T09:54:52;27.25;;;18.60;;
81176;SDS011;70786;48.272;14.200;2023-10-19T09:57:30;25.77;;;18.38;;
81176;SDS011;70786;48.272;14.200;2023-10-19T10:00:01;24.85;;;16.92;;
81176;SDS011;70786;48.272;14.200;2023-10-19T10:02:43;22.35;;;13.77;;
81176;SDS011;70786;48.272;14.200;2023-10-19T10:10:47;20.95;;;14.63;;
81176;SDS011;70786;48.272;14.200;2023-10-19T10:15:53;20.52;;;13.57;;
81176;SDS011;70786;48.272;14.200;2023-10-19T10:18:37;20.50;;;13.13;;
81176;SDS011;70786;48.272;14.200;2023-10-19T10:23:39;19.88;;;14.48;;
81176;SDS011;70786;48.272;14.200;2023-10-19T10:26:08;25.67;;;16.08;;
81176;SDS011;70786;48.272;14.200;2023-10-19T10:28:35;30.05;;;18.08;;
81176;SDS011;70786;48.272;14.200;2023-10-19T10:33:39;24.48;;;18.35;;
81176;SDS011;70786;48.272;14.200;2023-10-19T10:36:06;24.65;;;17.67;;
81176;SDS011;70786;48.272;14.200;2023-10-19T10:38:35;26.75;;;16.73;;
81176;SDS011;70786;48.272;14.200;2023-10-19T10:41:01;22.55;;;15.65;;
81176;SDS011;70786;48.272;14.200;2023-10-19T10:43:27;17.75;;;11.55;;
81176;SDS011;70786;48.272;14.200;2023-10-19T10:46:05;28.10;;;19.75;;
81176;SDS011;70786;48.272;14.200;2023-10-19T10:48:33;24.77;;;16.33;;
81176;SDS011;70786;48.272;14.200;2023-10-19T10:50:59;25.40;;;18.63;;
81176;SDS011;70786;48.272;14.200;2023-10-19T10:53:25;24.35;;;18.05;;
81176;SDS011;70786;48.272;14.200;2023-10-19T10:55:52;20.00;;;14.13;;
81176;SDS011;70786;48.272;14.200;2023-10-19T10:58:19;20.40;;;15.18;;
81176;SDS011;70786;48.272;14.200;2023-10-19T11:00:45;21.33;;;16.90;;
81176;SDS011;70786;48.272;14.200;2023-10-19T11:03:17;25.58;;;16.13;;
81176;SDS011;70786;48.272;14.200;2023-10-19T11:05:43;21.90;;;15.77;;
81176;SDS011;70786;48.272;14.200;2023-10-19T11:08:12;26.40;;;17.48;;
81176;SDS011;70786;48.272;14.200;2023-10-19T11:10:40;24.92;;;17.63;;
81176;SDS011;70786;48.272;14.200;2023-10-19T11:13:09;25.63;;;18.65;;
81176;SDS011;70786;48.272;14.200;2023-10-19T11:15:37;23.73;;;16.15;;
81176;SDS011;70786;48.272;14.200;2023-10-19T11:18:07;22.80;;;13.73;;
81176;SDS011;70786;48.272;14.200;2023-10-19T11:20:33;25.77;;;17.92;;
81176;SDS011;70786;48.272;14.200;2023-10-19T11:22:59;22.67;;;17.08;;
81176;SDS011;70786;48.272;14.200;2023-10-19T11:25:26;22.83;;;15.10;;
81176;SDS011;70786;48.272;14.200;2023-10-19T11:28:00;18.73;;;13.68;;
81176;SDS011;70786;48.272;14.200;2023-10-19T11:30:27;25.75;;;19.05;;
81176;SDS011;70786;48.272;14.200;2023-10-19T11:32:55;23.63;;;17.48;;
81176;SDS011;70786;48.272;14.200;2023-10-19T11:35:27;21.83;;;14.40;;
81176;SDS011;70786;48.272;14.200;2023-10-19T11:37:55;26.55;;;20.23;;
81176;SDS011;70786;48.272;14.200;2023-10-19T11:40:25;28.50;;;19.42;;
81176;SDS011;70786;48.272;14.200;2023-10-19T11:42:51;23.08;;;16.67;;
81176;SDS011;70786;48.272;14.200;2023-10-19T11:45:18;28.65;;;18.17;;
81176;SDS011;70786;48.272;14.200;2023-10-19T11:47:44;23.00;;;17.08;;
81176;SDS011;70786;48.272;14.200;2023-10-19T11:50:11;30.15;;;18.08;;
81176;SDS011;70786;48.272;14.200;2023-10-19T11:52:41;27.17;;;18.50;;
81176;SDS011;70786;48.272;14.200;2023-10-19T11:55:08;27.17;;;21.13;;
81176;SDS011;70786;48.272;14.200;2023-10-19T11:57:34;25.67;;;19.60;;
81176;SDS011;70786;48.272;14.200;2023-10-19T12:00:04;24.42;;;19.58;;
81176;SDS011;70786;48.272;14.200;2023-10-19T12:02:39;28.02;;;20.63;;
81176;SDS011;70786;48.272;14.200;2023-10-19T12:05:09;23.58;;;15.95;;
81176;SDS011;70786;48.272;14.200;2023-10-19T12:07:38;28.55;;;20.05;;
81176;SDS011;70786;48.272;14.200;2023-10-19T12:10:06;22.95;;;17.05;;
81176;SDS011;70786;48.272;14.200;2023-10-19T12:12:34;29.08;;;16.85;;
81176;SDS011;70786;48.272;14.200;2023-10-19T12:15:00;26.02;;;19.42;;
81176;SDS011;70786;48.272;14.200;2023-10-19T12:17:26;25.35;;;17.45;;
81176;SDS011;70786;48.272;14.200;2023-10-19T12:19:53;30.08;;;17.92;;
81176;SDS011;70786;48.272;14.200;2023-10-19T12:22:20;24.65;;;17.45;;
81176;SDS011;70786;48.272;14.200;2023-10-19T12:24:47;23.58;;;16.63;;
81176;SDS011;70786;48.272;14.200;2023-10-19T12:27:14;25.50;;;17.85;;
81176;SDS011;70786;48.272;14.200;2023-10-19T12:29:40;21.55;;;15.63;;
81176;SDS011;70786;48.272;14.200;2023-10-19T12:32:06;26.88;;;18.58;;
81176;SDS011;70786;48.272;14.200;2023-10-19T12:34:32;21.13;;;16.33;;
81176;SDS011;70786;48.272;14.200;2023-10-19T12:36:58;25.38;;;19.33;;
81176;SDS011;70786;48.272;14.200;2023-10-19T12:39:24;23.27;;;16.80;;
81176;SDS011;70786;48.272;14.200;2023-10-19T12:42:10;24.52;;;18.48;;
81176;SDS011;70786;48.272;14.200;2023-10-19T12:44:36;20.83;;;14.32;;
81176;SDS011;70786;48.272;14.200;2023-10-19T12:47:07;22.83;;;16.48;;
81176;SDS011;70786;48.272;14.200;2023-10-19T12:49:36;25.25;;;17.95;;
81176;SDS011;70786;48.272;14.200;2023-10-19T12:52:03;22.65;;;15.93;;
81176;SDS011;70786;48.272;14.200;2023-10-19T12:54:29;22.45;;;16.90;;
81176;SDS011;70786;48.272;14.200;2023-10-19T12:56:55;20.25;;;13.88;;
81176;SDS011;70786;48.272;14.200;2023-10-19T12:59:21;18.33;;;10.65;;
81176;SDS011;70786;48.272;14.200;2023-10-19T13:01:48;20.63;;;14.40;;
81176;SDS011;70786;48.272;14.200;2023-10-19T13:04:15;18.65;;;13.07;;
81176;SDS011;70786;48.272;14.200;2023-10-19T13:06:44;20.02;;;14.98;;
81176;SDS011;70786;48.272;14.200;2023-10-19T13:09:12;21.58;;;14.93;;
81176;SDS011;70786;48.272;14.200;2023-10-19T13:11:41;18.20;;;13.57;;
81176;SDS011;70786;48.272;14.200;2023-10-19T13:14:10;15.73;;;12.05;;
81176;SDS011;70786;48.272;14.200;2023-10-19T13:16:37;20.70;;;15.15;;
81176;SDS011;70786;48.272;14.200;2023-10-19T13:19:03;20.40;;;14.18;;
81176;SDS011;70786;48.272;14.200;2023-10-19T13:21:34;19.13;;;14.27;;
81176;SDS011;70786;48.272;14.200;2023-10-19T13:24:00;24.73;;;17.40;;
81176;SDS011;70786;48.272;14.200;2023-10-19T13:26:27;26.05;;;17.15;;
81176;SDS011;70786;48.272;14.200;2023-10-19T13:28:53;23.02;;;18.80;;
81176;SDS011;70786;48.272;14.200;2023-10-19T13:31:21;18.10;;;13.75;;
81176;SDS011;70786;48.272;14.200;2023-10-19T13:33:47;20.63;;;14.10;;
81176;SDS011;70786;48.272;14.200;2023-10-19T13:36:13;18.90;;;13.95;;
81176;SDS011;70786;48.272;14.200;2023-10-19T13:38:41;22.90;;;16.75;;
81176;SDS011;70786;48.272;14.200;2023-10-19T13:41:07;24.83;;;17.92;;
81176;SDS011;70786;48.272;14.200;2023-10-19T13:43:35;24.15;;;16.02;;
81176;SDS011;70786;48.272;14.200;2023-10-19T13:46:01;26.88;;;17.55;;
81176;SDS011;70786;48.272;14.200;2023-10-19T13:48:27;18.17;;;13.48;;
81176;SDS011;70786;48.272;14.200;2023-10-19T13:50:53;26.05;;;18.65;;
81176;SDS011;70786;48.272;14.200;2023-10-19T13:53:26;22.05;;;15.32;;
81176;SDS011;70786;48.272;14.200;2023-10-19T13:55:52;22.05;;;13.82;;
81176;SDS011;70786;48.272;14.200;2023-10-19T13:58:18;21.52;;;14.10;;
81176;SDS011;70786;48.272;14.200;2023-10-19T14:00:44;21.02;;;14.50;;
81176;SDS011;70786;48.272;14.200;2023-10-19T14:03:13;20.73;;;16.35;;
81176;SDS011;70786;48.272;14.200;2023-10-19T14:05:41;21.77;;;15.27;;
81176;SDS011;70786;48.272;14.200;2023-10-19T14:08:17;19.70;;;16.55;;
81176;SDS011;70786;48.272;14.200;2023-10-19T14:10:44;20.10;;;14.55;;
81176;SDS011;70786;48.272;14.200;2023-10-19T14:13:10;18.10;;;13.25;;
81176;SDS011;70786;48.272;14.200;2023-10-19T14:15:42;24.55;;;17.83;;
81176;SDS011;70786;48.272;14.200;2023-10-19T14:18:08;21.08;;;15.48;;
81176;SDS011;70786;48.272;14.200;2023-10-19T14:20:35;20.80;;;15.70;;
81176;SDS011;70786;48.272;14.200;2023-10-19T14:23:04;25.48;;;18.10;;
81176;SDS011;70786;48.272;14.200;2023-10-19T14:25:30;22.30;;;18.38;;
81176;SDS011;70786;48.272;14.200;2023-10-19T14:27:57;24.40;;;16.70;;
81176;SDS011;70786;48.272;14.200;2023-10-19T14:30:25;21.38;;;16.13;;
81176;SDS011;70786;48.272;14.200;2023-10-19T14:32:52;21.60;;;16.02;;
81176;SDS011;70786;48.272;14.200;2023-10-19T14:35:19;22.58;;;16.35;;
81176;SDS011;70786;48.272;14.200;2023-10-19T14:37:46;24.13;;;16.85;;
81176;SDS011;70786;48.272;14.200;2023-10-19T14:40:24;24.08;;;17.48;;
81176;SDS011;70786;48.272;14.200;2023-10-19T14:42:51;25.38;;;21.30;;
81176;SDS011;70786;48.272;14.200;2023-10-19T14:45:23;24.67;;;17.15;;
81176;SDS011;70786;48.272;14.200;2023-10-19T14:47:56;23.83;;;18.75;;
81176;SDS011;70786;48.272;14.200;2023-10-19T14:50:23;23.50;;;18.05;;